createdAt,value
2019-06-20T00:00:02.000Z,21.625
2019-06-20T00:03:02.000Z,21.687
2019-06-20T00:04:01.000Z,21.875
2019-06-20T00:16:02.000Z,21.625
2019-06-20T00:22:01.000Z,21.562
2019-06-20T00:23:01.000Z,21.5
2019-06-20T00:24:01.000Z,21.437
2019-06-20T00:25:01.000Z,21.437
2019-06-20T00:26:02.000Z,21.375
2019-06-20T00:27:02.000Z,21.375
2019-06-20T00:28:02.000Z,21.375
2019-06-20T00:29:02.000Z,21.312
2019-06-20T00:29:02.000Z,21.312
2019-06-20T00:30:02.000Z,21.312
2019-06-20T00:31:01.000Z,21.312
2019-06-20T00:32:01.000Z,21.25
2019-06-20T00:33:01.000Z,21.25
2019-06-20T00:34:01.000Z,21.187
2019-06-20T00:35:01.000Z,21.187
2019-06-20T00:36:01.000Z,21.187
2019-06-20T00:37:01.000Z,21.125
2019-06-20T00:38:01.000Z,21.125
2019-06-20T00:38:01.000Z,21.125
2019-06-20T00:39:01.000Z,21.125
2019-06-20T00:40:01.000Z,21.125
2019-06-20T00:41:01.000Z,21.187
2019-06-20T00:42:01.000Z,21.187
2019-06-20T00:43:01.000Z,21.187
2019-06-20T00:44:02.000Z,21.187
2019-06-20T00:45:01.000Z,21.187
2019-06-20T00:46:02.000Z,21.187
2019-06-20T00:47:02.000Z,21.25
2019-06-20T00:48:01.000Z,21.375
2019-06-20T00:49:02.000Z,21.5
2019-06-20T00:50:01.000Z,21.687
2019-06-20T00:51:02.000Z,21.75
2019-06-20T00:51:02.000Z,21.75
2019-06-20T00:52:01.000Z,21.812
2019-06-20T00:53:01.000Z,21.875
2019-06-20T00:54:01.000Z,21.875
2019-06-20T00:55:01.000Z,21.937
2019-06-20T00:56:01.000Z,21.937
2019-06-20T00:57:01.000Z,21.875
2019-06-20T00:58:01.000Z,21.812
2019-06-20T00:59:01.000Z,21.75
2019-06-20T01:00:01.000Z,21.625
2019-06-20T01:01:01.000Z,21.562
2019-06-20T01:02:01.000Z,21.562
2019-06-20T01:03:01.000Z,21.5
2019-06-20T01:04:01.000Z,21.375
2019-06-20T01:05:01.000Z,21.062
2019-06-20T01:05:02.000Z,21.062
2019-06-20T01:06:02.000Z,20.812
2019-06-20T01:07:02.000Z,20.437
2019-06-20T01:08:02.000Z,20.125
2019-06-20T01:09:02.000Z,19.812
2019-06-20T01:10:01.000Z,19.562
2019-06-20T01:11:01.000Z,19.312
2019-06-20T01:12:01.000Z,19.125
2019-06-20T01:13:01.000Z,19
2019-06-20T01:14:01.000Z,18.875
2019-06-20T01:15:01.000Z,18.812
2019-06-20T01:16:01.000Z,18.687
2019-06-20T01:17:01.000Z,18.625
2019-06-20T01:18:01.000Z,18.562
2019-06-20T01:18:01.000Z,18.562
2019-06-20T01:19:01.000Z,18.5
2019-06-20T01:20:01.000Z,18.437
2019-06-20T01:21:01.000Z,18.5
2019-06-20T01:22:01.000Z,18.5
2019-06-20T01:23:01.000Z,18.5
2019-06-20T01:24:01.000Z,18.562
2019-06-20T01:25:01.000Z,18.562
2019-06-20T01:26:01.000Z,18.5
2019-06-20T01:27:01.000Z,18.562
2019-06-20T01:28:02.000Z,18.562
2019-06-20T01:29:02.000Z,18.562
2019-06-20T01:30:02.000Z,18.5
2019-06-20T01:31:01.000Z,18.5
2019-06-20T01:32:01.000Z,18.5
2019-06-20T01:32:02.000Z,18.5
2019-06-20T01:33:01.000Z,18.5
2019-06-20T01:34:01.000Z,18.437
2019-06-20T01:35:01.000Z,18.437
2019-06-20T01:36:01.000Z,18.437
2019-06-20T01:37:01.000Z,18.5
2019-06-20T01:38:01.000Z,18.437
2019-06-20T01:39:01.000Z,18.375
2019-06-20T01:40:02.000Z,18.312
2019-06-20T01:41:02.000Z,18.312
2019-06-20T01:42:02.000Z,18.25
2019-06-20T01:43:01.000Z,18.312
2019-06-20T01:44:01.000Z,18.25
2019-06-20T01:45:01.000Z,18.25
2019-06-20T01:45:02.000Z,18.187
2019-06-20T01:46:02.000Z,18.125
2019-06-20T01:47:02.000Z,18.125
2019-06-20T01:48:01.000Z,18.062
2019-06-20T01:49:01.000Z,18.062
2019-06-20T01:50:01.000Z,18.062
2019-06-20T01:51:01.000Z,18.062
2019-06-20T01:52:02.000Z,18.062
2019-06-20T01:53:01.000Z,18.062
2019-06-20T01:54:01.000Z,18.062
2019-06-20T01:55:01.000Z,18.062
2019-06-20T01:55:02.000Z,18.062
2019-06-20T01:56:02.000Z,18
2019-06-20T01:57:02.000Z,17.937
2019-06-20T01:58:02.000Z,17.937
2019-06-20T01:59:02.000Z,17.937
2019-06-20T02:00:02.000Z,17.937
2019-06-20T02:01:02.000Z,17.937
2019-06-20T02:02:02.000Z,17.937
2019-06-20T02:03:02.000Z,17.875
2019-06-20T02:04:01.000Z,17.875
2019-06-20T02:05:01.000Z,17.937
2019-06-20T02:06:01.000Z,17.875
2019-06-20T02:07:01.000Z,17.875
2019-06-20T02:08:01.000Z,17.812
2019-06-20T02:09:01.000Z,17.75
2019-06-20T02:09:02.000Z,17.75
2019-06-20T02:10:01.000Z,17.75
2019-06-20T02:11:02.000Z,17.75
2019-06-20T02:12:01.000Z,17.75
2019-06-20T02:13:01.000Z,17.75
2019-06-20T02:14:01.000Z,17.75
2019-06-20T02:15:02.000Z,17.75
2019-06-20T02:16:01.000Z,17.687
2019-06-20T02:17:01.000Z,17.687
2019-06-20T02:18:02.000Z,17.75
2019-06-20T02:19:02.000Z,17.75
2019-06-20T02:20:01.000Z,17.687
2019-06-20T02:21:01.000Z,17.562
2019-06-20T02:22:01.000Z,17.5
2019-06-20T02:22:02.000Z,17.5
2019-06-20T02:23:01.000Z,17.562
2019-06-20T02:24:01.000Z,17.5
2019-06-20T02:25:01.000Z,17.5
2019-06-20T02:26:01.000Z,17.562
2019-06-20T02:27:01.000Z,17.5
2019-06-20T02:28:01.000Z,17.5
2019-06-20T02:29:01.000Z,17.5
2019-06-20T02:30:01.000Z,17.437
2019-06-20T02:31:01.000Z,17.375
2019-06-20T02:32:01.000Z,17.312
2019-06-20T02:33:01.000Z,17.312
2019-06-20T02:34:01.000Z,17.312
2019-06-20T02:35:02.000Z,17.375
2019-06-20T02:35:02.000Z,17.375
2019-06-20T02:36:02.000Z,17.375
2019-06-20T02:37:01.000Z,17.375
2019-06-20T02:38:02.000Z,17.375
2019-06-20T02:39:01.000Z,17.312
2019-06-20T02:40:02.000Z,17.375
2019-06-20T02:41:01.000Z,17.375
2019-06-20T02:42:01.000Z,17.375
2019-06-20T02:42:02.000Z,17.375
2019-06-20T02:43:01.000Z,17.437
2019-06-20T02:43:02.000Z,17.437
2019-06-20T02:44:01.000Z,17.437
2019-06-20T02:44:02.000Z,17.437
2019-06-20T02:45:01.000Z,17.5
2019-06-20T02:45:02.000Z,17.5
2019-06-20T02:46:01.000Z,17.5
2019-06-20T02:46:02.000Z,17.5
2019-06-20T02:47:01.000Z,17.5
2019-06-20T02:47:02.000Z,17.5
2019-06-20T02:48:01.000Z,17.5
2019-06-20T02:49:01.000Z,17.5
2019-06-20T02:50:01.000Z,17.5
2019-06-20T02:51:01.000Z,17.5
2019-06-20T02:52:01.000Z,17.5
2019-06-20T02:53:01.000Z,17.437
2019-06-20T02:54:01.000Z,17.437
2019-06-20T02:55:01.000Z,17.5
2019-06-20T02:55:01.000Z,17.5
2019-06-20T02:56:02.000Z,17.562
2019-06-20T02:57:01.000Z,17.687
2019-06-20T02:58:02.000Z,17.75
2019-06-20T02:59:02.000Z,17.75
2019-06-20T03:00:02.000Z,17.812
2019-06-20T03:01:01.000Z,17.875
2019-06-20T03:02:01.000Z,18
2019-06-20T03:02:02.000Z,18
2019-06-20T03:03:01.000Z,18.125
2019-06-20T03:04:01.000Z,18.125
2019-06-20T03:05:01.000Z,18.125
2019-06-20T03:06:01.000Z,18.125
2019-06-20T03:07:01.000Z,18.187
2019-06-20T03:08:02.000Z,18.187
2019-06-20T03:09:02.000Z,18.187
2019-06-20T03:10:02.000Z,18.187
2019-06-20T03:11:02.000Z,18.25
2019-06-20T03:12:02.000Z,18.25
2019-06-20T03:13:02.000Z,18.375
2019-06-20T03:14:02.000Z,18.312
2019-06-20T03:15:01.000Z,18.312
2019-06-20T03:15:02.000Z,18.312
2019-06-20T03:16:02.000Z,18.312
2019-06-20T03:17:02.000Z,18.375
2019-06-20T03:18:02.000Z,18.562
2019-06-20T03:19:02.000Z,18.687
2019-06-20T03:20:02.000Z,18.812
2019-06-20T03:21:01.000Z,18.937
2019-06-20T03:22:01.000Z,19
2019-06-20T03:23:01.000Z,19.062
2019-06-20T03:24:01.000Z,19.125
2019-06-20T03:25:01.000Z,19.125
2019-06-20T03:26:01.000Z,19
2019-06-20T03:27:01.000Z,18.875
2019-06-20T03:27:01.000Z,18.875
2019-06-20T03:28:02.000Z,18.75
2019-06-20T03:29:02.000Z,18.75
2019-06-20T03:30:02.000Z,18.5
2019-06-20T03:31:02.000Z,18.375
2019-06-20T03:32:02.000Z,18.25
2019-06-20T03:33:02.000Z,18.187
2019-06-20T03:34:02.000Z,18.125
2019-06-20T03:35:02.000Z,18.062
2019-06-20T03:36:01.000Z,18.125
2019-06-20T03:37:01.000Z,18.187
2019-06-20T03:38:01.000Z,18.437
2019-06-20T03:39:01.000Z,18.875
2019-06-20T03:40:01.000Z,19.25
2019-06-20T03:40:01.000Z,19.25
2019-06-20T03:41:02.000Z,19.687
2019-06-20T03:42:02.000Z,20
2019-06-20T03:43:02.000Z,20.25
2019-06-20T03:44:02.000Z,20.437
2019-06-20T03:45:01.000Z,20.687
2019-06-20T03:46:01.000Z,21.125
2019-06-20T03:47:01.000Z,21.562
2019-06-20T03:48:01.000Z,21.937
2019-06-20T03:49:01.000Z,22.312
2019-06-20T03:50:01.000Z,22.687
2019-06-20T03:51:01.000Z,23
2019-06-20T03:52:01.000Z,23.312
2019-06-20T03:53:01.000Z,23.625
2019-06-20T03:54:01.000Z,23.875
2019-06-20T03:54:01.000Z,23.875
2019-06-20T03:55:02.000Z,24.062
2019-06-20T03:56:01.000Z,24.312
2019-06-20T03:57:01.000Z,24.437
2019-06-20T03:58:02.000Z,24.562
2019-06-20T03:59:01.000Z,24.625
2019-06-20T04:00:01.000Z,24.75
2019-06-20T04:01:01.000Z,24.875
2019-06-20T04:02:01.000Z,24.937
2019-06-20T04:03:01.000Z,25
2019-06-20T04:04:02.000Z,25
2019-06-20T04:05:02.000Z,25.125
2019-06-20T04:05:02.000Z,25.125
2019-06-20T04:06:01.000Z,25.437
2019-06-20T04:07:01.000Z,25.562
2019-06-20T04:08:01.000Z,25.687
2019-06-20T04:09:01.000Z,25.812
2019-06-20T04:10:01.000Z,26
2019-06-20T04:11:01.000Z,26.187
2019-06-20T04:12:01.000Z,26.437
2019-06-20T04:13:02.000Z,26.625
2019-06-20T04:14:02.000Z,26.75
2019-06-20T04:14:02.000Z,26.75
2019-06-20T04:15:02.000Z,26.75
2019-06-20T04:16:02.000Z,27.187
2019-06-20T04:17:02.000Z,27.375
2019-06-20T04:18:01.000Z,27.5
2019-06-20T04:19:01.000Z,27.687
2019-06-20T04:20:02.000Z,27.75
2019-06-20T04:21:02.000Z,27.75
2019-06-20T04:22:02.000Z,27.75
2019-06-20T04:23:02.000Z,28.125
2019-06-20T04:24:01.000Z,28.187
2019-06-20T04:25:02.000Z,28.187
2019-06-20T04:26:01.000Z,28.312
2019-06-20T04:27:01.000Z,28.5
2019-06-20T04:27:02.000Z,28.5
2019-06-20T04:28:01.000Z,28.375
2019-06-20T04:29:01.000Z,28.25
2019-06-20T04:30:01.000Z,28.125
2019-06-20T04:31:01.000Z,28.125
2019-06-20T04:32:01.000Z,28.25
2019-06-20T04:33:02.000Z,28.437
2019-06-20T04:34:02.000Z,28.437
2019-06-20T04:35:01.000Z,28.25
2019-06-20T04:36:01.000Z,28.312
2019-06-20T04:37:01.000Z,28.187
2019-06-20T04:38:01.000Z,28.125
2019-06-20T04:39:02.000Z,28.312
2019-06-20T04:40:01.000Z,28.312
2019-06-20T04:40:02.000Z,28.312
2019-06-20T04:41:01.000Z,28.437
2019-06-20T04:42:01.000Z,28.437
2019-06-20T04:43:01.000Z,28.437
2019-06-20T04:44:01.000Z,28.687
2019-06-20T04:45:01.000Z,29.062
2019-06-20T04:46:02.000Z,29.437
2019-06-20T04:47:01.000Z,29.75
2019-06-20T04:48:01.000Z,29.687
2019-06-20T04:49:01.000Z,29.375
2019-06-20T04:50:01.000Z,29.062
2019-06-20T04:51:01.000Z,28.875
2019-06-20T04:52:01.000Z,29.062
2019-06-20T04:53:01.000Z,28.875
2019-06-20T04:53:01.000Z,28.875
2019-06-20T04:54:01.000Z,28.687
2019-06-20T04:55:01.000Z,28.562
2019-06-20T04:56:01.000Z,28.5
2019-06-20T04:57:01.000Z,28.312
2019-06-20T04:58:01.000Z,28
2019-06-20T04:59:01.000Z,27.812
2019-06-20T05:00:01.000Z,27.812
2019-06-20T05:01:01.000Z,27.875
2019-06-20T05:02:01.000Z,27.812
2019-06-20T05:03:01.000Z,27.687
2019-06-20T05:04:01.000Z,27.625
2019-06-20T05:05:01.000Z,27.437
2019-06-20T05:06:01.000Z,27
2019-06-20T05:07:01.000Z,26.437
2019-06-20T05:07:02.000Z,26.437
2019-06-20T05:08:02.000Z,26.125
2019-06-20T05:09:02.000Z,25.812
2019-06-20T05:10:02.000Z,25.5
2019-06-20T05:11:02.000Z,25.187
2019-06-20T05:12:02.000Z,24.875
2019-06-20T05:13:01.000Z,24.625
2019-06-20T05:14:01.000Z,24.562
2019-06-20T05:15:02.000Z,24.5
2019-06-20T05:16:02.000Z,24.375
2019-06-20T05:17:02.000Z,24.187
2019-06-20T05:18:02.000Z,24
2019-06-20T05:19:02.000Z,23.75
2019-06-20T05:19:02.000Z,23.75
2019-06-20T05:20:01.000Z,23.5
2019-06-20T05:21:01.000Z,23.125
2019-06-20T05:22:01.000Z,22.5
2019-06-20T05:23:01.000Z,21.937
2019-06-20T05:24:01.000Z,21.437
2019-06-20T05:25:01.000Z,21.062
2019-06-20T05:26:01.000Z,20.812
2019-06-20T05:27:01.000Z,20.562
2019-06-20T05:27:01.000Z,20.562
2019-06-20T05:28:01.000Z,20.375
2019-06-20T05:28:02.000Z,20.375
2019-06-20T05:29:01.000Z,20.187
2019-06-20T05:30:01.000Z,20.062
2019-06-20T05:31:01.000Z,20
2019-06-20T05:32:01.000Z,20.062
2019-06-20T05:33:01.000Z,20.125
2019-06-20T05:34:01.000Z,20.187
2019-06-20T05:34:01.000Z,20.187
2019-06-20T05:35:01.000Z,20.312
2019-06-20T05:36:01.000Z,20.5
2019-06-20T05:37:01.000Z,20.625
2019-06-20T05:38:01.000Z,20.75
2019-06-20T05:39:01.000Z,20.812
2019-06-20T05:40:02.000Z,20.875
2019-06-20T05:41:01.000Z,20.937
2019-06-20T05:42:01.000Z,21.062
2019-06-20T05:43:01.000Z,21.125
2019-06-20T05:44:01.000Z,21.187
2019-06-20T05:45:02.000Z,21.25
2019-06-20T05:46:01.000Z,21.25
2019-06-20T05:47:02.000Z,21.312
2019-06-20T05:48:02.000Z,21.25
2019-06-20T05:48:02.000Z,21.25
2019-06-20T05:49:02.000Z,21.187
2019-06-20T05:50:02.000Z,21.187
2019-06-20T05:51:02.000Z,21.125
2019-06-20T05:52:02.000Z,21.125
2019-06-20T05:53:02.000Z,21
2019-06-20T05:54:01.000Z,21
2019-06-20T05:55:01.000Z,20.937
2019-06-20T05:56:02.000Z,20.875
2019-06-20T05:57:02.000Z,20.812
2019-06-20T05:58:01.000Z,20.812
2019-06-20T05:59:01.000Z,20.812
2019-06-20T06:00:01.000Z,20.75
2019-06-20T06:01:01.000Z,20.75
2019-06-20T06:01:01.000Z,20.75
2019-06-20T06:02:01.000Z,20.75
2019-06-20T06:03:01.000Z,20.562
2019-06-20T06:04:02.000Z,20.437
2019-06-20T06:05:01.000Z,20.187
2019-06-20T06:06:01.000Z,20
2019-06-20T06:07:01.000Z,19.687
2019-06-20T06:08:01.000Z,19.437
2019-06-20T06:09:01.000Z,19.437
2019-06-20T06:10:02.000Z,19.187
2019-06-20T06:11:02.000Z,18.812
2019-06-20T06:12:01.000Z,18.687
2019-06-20T06:13:01.000Z,18.562
2019-06-20T06:13:02.000Z,18.562
2019-06-20T06:14:01.000Z,18.437
2019-06-20T06:15:01.000Z,18.312
2019-06-20T06:16:01.000Z,18.187
2019-06-20T06:17:01.000Z,18.187
2019-06-20T06:18:01.000Z,18.062
2019-06-20T06:19:01.000Z,17.937
2019-06-20T06:20:01.000Z,17.875
2019-06-20T06:21:02.000Z,17.812
2019-06-20T06:22:02.000Z,17.812
2019-06-20T06:22:02.000Z,17.812
2019-06-20T06:23:01.000Z,17.687
2019-06-20T06:24:01.000Z,17.687
2019-06-20T06:25:01.000Z,17.625
2019-06-20T06:26:01.000Z,17.562
2019-06-20T06:27:01.000Z,17.562
2019-06-20T06:28:01.000Z,17.437
2019-06-20T06:29:02.000Z,17.437
2019-06-20T06:30:02.000Z,17.437
2019-06-20T06:31:01.000Z,17.437
2019-06-20T06:32:02.000Z,17.375
2019-06-20T06:33:02.000Z,17.375
2019-06-20T06:34:01.000Z,17.312
2019-06-20T06:35:01.000Z,17.312
2019-06-20T06:36:01.000Z,17.25
2019-06-20T06:36:02.000Z,17.25
2019-06-20T06:37:01.000Z,17.25
2019-06-20T06:38:01.000Z,17.312
2019-06-20T06:39:01.000Z,17.312
2019-06-20T06:40:01.000Z,17.312
2019-06-20T06:41:02.000Z,17.312
2019-06-20T06:42:01.000Z,17.312
2019-06-20T06:43:01.000Z,17.312
2019-06-20T06:44:01.000Z,17.375
2019-06-20T06:45:02.000Z,17.437
2019-06-20T06:46:02.000Z,17.437
2019-06-20T06:47:02.000Z,17.5
2019-06-20T06:48:02.000Z,17.5
2019-06-20T06:49:02.000Z,17.562
2019-06-20T06:49:02.000Z,17.562
2019-06-20T06:50:02.000Z,17.562
2019-06-20T06:51:01.000Z,17.562
2019-06-20T06:52:01.000Z,17.625
2019-06-20T06:53:01.000Z,17.625
2019-06-20T06:54:01.000Z,17.625
2019-06-20T06:55:01.000Z,17.687
2019-06-20T06:56:02.000Z,17.687
2019-06-20T06:57:02.000Z,17.75
2019-06-20T06:58:02.000Z,17.75
2019-06-20T06:59:02.000Z,17.75
2019-06-20T07:00:01.000Z,17.812
2019-06-20T07:01:02.000Z,17.875
2019-06-20T07:02:01.000Z,17.875
2019-06-20T07:02:02.000Z,17.875
2019-06-20T07:03:01.000Z,17.875
2019-06-20T07:04:01.000Z,17.937
2019-06-20T07:05:01.000Z,18.062
2019-06-20T07:06:01.000Z,18.125
2019-06-20T07:07:01.000Z,18.187
2019-06-20T07:08:01.000Z,18.25
2019-06-20T07:09:01.000Z,18.312
2019-06-20T07:10:01.000Z,18.375
2019-06-20T07:11:01.000Z,18.437
2019-06-20T07:12:01.000Z,18.5
2019-06-20T07:13:01.000Z,18.562
2019-06-20T07:14:01.000Z,18.625
2019-06-20T07:15:01.000Z,18.75
2019-06-20T07:15:02.000Z,18.75
2019-06-20T07:16:01.000Z,18.75
2019-06-20T07:17:01.000Z,18.812
2019-06-20T07:18:01.000Z,18.875
2019-06-20T07:19:01.000Z,18.937
2019-06-20T07:20:01.000Z,19
2019-06-20T07:21:01.000Z,19.062
2019-06-20T07:22:01.000Z,19.062
2019-06-20T07:23:01.000Z,19.125
2019-06-20T07:24:01.000Z,19.125
2019-06-20T07:25:01.000Z,19.125
2019-06-20T07:26:01.000Z,19.062
2019-06-20T07:27:01.000Z,19.062
2019-06-20T07:27:01.000Z,19.062
2019-06-20T07:28:01.000Z,19
2019-06-20T07:29:01.000Z,19
2019-06-20T07:30:02.000Z,19
2019-06-20T07:31:02.000Z,18.937
2019-06-20T07:32:01.000Z,19
2019-06-20T07:33:01.000Z,19.125
2019-06-20T07:34:01.000Z,19.187
2019-06-20T07:35:01.000Z,19.375
2019-06-20T07:35:02.000Z,19.375
2019-06-20T07:36:01.000Z,19.437
2019-06-20T07:37:01.000Z,19.437
2019-06-20T07:38:01.000Z,19.5
2019-06-20T07:39:02.000Z,19.5
2019-06-20T07:40:01.000Z,19.562
2019-06-20T07:41:01.000Z,19.625
2019-06-20T07:42:01.000Z,19.625
2019-06-20T07:43:01.000Z,19.75
2019-06-20T07:44:01.000Z,19.875
2019-06-20T07:45:01.000Z,19.937
2019-06-20T07:46:02.000Z,19.937
2019-06-20T07:47:02.000Z,20
2019-06-20T07:48:02.000Z,20.062
2019-06-20T07:48:02.000Z,20.062
2019-06-20T07:49:02.000Z,20.062
2019-06-20T07:50:02.000Z,20.062
2019-06-20T07:51:02.000Z,20.062
2019-06-20T07:52:02.000Z,20.125
2019-06-20T07:53:02.000Z,20.125
2019-06-20T07:54:01.000Z,20.187
2019-06-20T07:55:01.000Z,20.187
2019-06-20T07:56:01.000Z,20.25
2019-06-20T07:57:02.000Z,20.187
2019-06-20T07:58:01.000Z,20.187
2019-06-20T07:59:02.000Z,20.25
2019-06-20T08:00:02.000Z,20.25
2019-06-20T08:01:02.000Z,20.312
2019-06-20T08:01:02.000Z,20.312
2019-06-20T08:02:01.000Z,20.375
2019-06-20T08:03:01.000Z,20.437
2019-06-20T08:04:01.000Z,20.562
2019-06-20T08:05:01.000Z,20.875
2019-06-20T08:06:02.000Z,21.187
2019-06-20T08:07:01.000Z,21.562
2019-06-20T08:08:01.000Z,21.937
2019-06-20T08:09:01.000Z,22.375
2019-06-20T08:10:01.000Z,22.75
2019-06-20T08:11:01.000Z,23.187
2019-06-20T08:12:01.000Z,23.5
2019-06-20T08:13:01.000Z,23.625
2019-06-20T08:14:02.000Z,23.625
2019-06-20T08:14:02.000Z,23.625
2019-06-20T08:15:02.000Z,23.562
2019-06-20T08:16:01.000Z,23.375
2019-06-20T08:17:01.000Z,23.062
2019-06-20T08:18:01.000Z,22.812
2019-06-20T08:19:02.000Z,22.625
2019-06-20T08:20:02.000Z,22.625
2019-06-20T08:21:02.000Z,22.312
2019-06-20T08:22:02.000Z,22.187
2019-06-20T08:23:01.000Z,22.187
2019-06-20T08:24:01.000Z,22.312
2019-06-20T08:25:01.000Z,22.437
2019-06-20T08:26:01.000Z,22.75
2019-06-20T08:27:02.000Z,23.25
2019-06-20T08:27:02.000Z,23.25
2019-06-20T08:28:02.000Z,23.812
2019-06-20T08:29:02.000Z,24.25
2019-06-20T08:30:01.000Z,24.687
2019-06-20T08:31:02.000Z,25.125
2019-06-20T08:32:01.000Z,25.25
2019-06-20T08:33:01.000Z,25.375
2019-06-20T08:34:01.000Z,25.562
2019-06-20T08:35:01.000Z,25.937
2019-06-20T08:36:02.000Z,26.062
2019-06-20T08:37:02.000Z,26.187
2019-06-20T08:38:02.000Z,26.062
2019-06-20T08:39:02.000Z,25.875
2019-06-20T08:39:02.000Z,25.875
2019-06-20T08:40:01.000Z,25.875
2019-06-20T08:41:02.000Z,26.125
2019-06-20T08:42:02.000Z,26.062
2019-06-20T08:43:01.000Z,25.875
2019-06-20T08:44:02.000Z,25.875
2019-06-20T08:45:02.000Z,25.812
2019-06-20T08:46:01.000Z,25.625
2019-06-20T08:47:01.000Z,25.625
2019-06-20T08:48:01.000Z,25.75
2019-06-20T08:48:02.000Z,25.75
2019-06-20T08:49:01.000Z,25.875
2019-06-20T08:50:01.000Z,26
2019-06-20T08:51:01.000Z,26.062
2019-06-20T08:52:01.000Z,26.062
2019-06-20T08:53:01.000Z,26.312
2019-06-20T08:54:01.000Z,26.562
2019-06-20T08:55:01.000Z,26.937
2019-06-20T08:56:02.000Z,27.375
2019-06-20T08:57:02.000Z,27.375
2019-06-20T08:58:02.000Z,28.437
2019-06-20T08:59:02.000Z,28.437
2019-06-20T09:02:02.000Z,30.187
2019-06-20T09:03:01.000Z,30.687
2019-06-20T09:04:01.000Z,31.187
2019-06-20T09:05:01.000Z,31.312
2019-06-20T09:06:01.000Z,31.312
2019-06-20T09:07:01.000Z,31.312
2019-06-20T09:08:01.000Z,31.125
2019-06-20T09:09:01.000Z,31.25
2019-06-20T09:10:02.000Z,31.375
2019-06-20T09:11:01.000Z,31.187
2019-06-20T09:12:02.000Z,30.687
2019-06-20T09:13:02.000Z,30
2019-06-20T09:14:02.000Z,30
2019-06-20T09:15:01.000Z,29.437
2019-06-20T09:15:01.000Z,29.437
2019-06-20T09:16:01.000Z,29.187
2019-06-20T09:17:01.000Z,28.875
2019-06-20T09:18:01.000Z,28.562
2019-06-20T09:19:01.000Z,28.312
2019-06-20T09:20:01.000Z,28
2019-06-20T09:21:02.000Z,27.75
2019-06-20T09:22:02.000Z,27.562
2019-06-20T09:23:02.000Z,27.312
2019-06-20T09:24:02.000Z,27.312
2019-06-20T09:25:02.000Z,27.25
2019-06-20T09:26:02.000Z,27.125
2019-06-20T09:27:01.000Z,27.312
2019-06-20T09:28:01.000Z,27.875
2019-06-20T09:28:02.000Z,27.875
2019-06-20T09:29:02.000Z,28.5
2019-06-20T09:30:01.000Z,28.875
2019-06-20T09:31:01.000Z,29.375
2019-06-20T09:32:01.000Z,29.75
2019-06-20T09:33:02.000Z,29.875
2019-06-20T09:34:01.000Z,30
2019-06-20T09:35:01.000Z,30.375
2019-06-20T09:36:01.000Z,30.375
2019-06-20T09:37:01.000Z,30.375
2019-06-20T09:38:01.000Z,30
2019-06-20T09:39:01.000Z,29.625
2019-06-20T09:40:01.000Z,29.625
2019-06-20T09:41:01.000Z,29.125
2019-06-20T09:41:02.000Z,29.125
2019-06-20T09:42:01.000Z,29.312
2019-06-20T09:43:01.000Z,29.812
2019-06-20T09:44:01.000Z,30.062
2019-06-20T09:45:01.000Z,30.562
2019-06-20T09:46:01.000Z,30.937
2019-06-20T09:47:01.000Z,31.437
2019-06-20T09:48:02.000Z,32
2019-06-20T09:49:01.000Z,32.437
2019-06-20T09:50:01.000Z,32.687
2019-06-20T09:51:02.000Z,32.875
2019-06-20T09:52:01.000Z,32.875
2019-06-20T09:53:01.000Z,32.875
2019-06-20T09:54:02.000Z,33.062
2019-06-20T09:54:02.000Z,33.062
2019-06-20T09:55:02.000Z,32.937
2019-06-20T09:56:01.000Z,32.562
2019-06-20T09:57:01.000Z,32
2019-06-20T09:58:01.000Z,31.812
2019-06-20T09:59:01.000Z,31.562
2019-06-20T10:00:01.000Z,31.625
2019-06-20T10:01:02.000Z,31.937
2019-06-20T10:02:02.000Z,32.062
2019-06-20T10:03:02.000Z,32.062
2019-06-20T10:03:02.000Z,32.062
2019-06-20T10:04:02.000Z,32.187
2019-06-20T10:05:01.000Z,32.312
2019-06-20T10:06:01.000Z,32.437
2019-06-20T10:07:01.000Z,32.375
2019-06-20T10:08:01.000Z,32.312
2019-06-20T10:09:01.000Z,32.25
2019-06-20T10:10:02.000Z,32.375
2019-06-20T10:11:02.000Z,32.437
2019-06-20T10:12:01.000Z,32.625
2019-06-20T10:13:01.000Z,32.75
2019-06-20T10:14:01.000Z,32.625
2019-06-20T10:15:01.000Z,32.625
2019-06-20T10:16:01.000Z,32.687
2019-06-20T10:16:01.000Z,32.687
2019-06-20T10:17:01.000Z,32.875
2019-06-20T10:18:01.000Z,32.687
2019-06-20T10:19:01.000Z,32.312
2019-06-20T10:20:01.000Z,32.312
2019-06-20T10:21:01.000Z,32.125
2019-06-20T10:22:01.000Z,32
2019-06-20T10:23:02.000Z,31.625
2019-06-20T10:24:02.000Z,31.687
2019-06-20T10:25:02.000Z,31.812
2019-06-20T10:26:01.000Z,31.937
2019-06-20T10:27:01.000Z,32
2019-06-20T10:28:01.000Z,31.812
2019-06-20T10:29:01.000Z,31.812
2019-06-20T10:29:01.000Z,31.812
2019-06-20T10:30:01.000Z,31.875
2019-06-20T10:31:01.000Z,32.187
2019-06-20T10:32:01.000Z,32.625
2019-06-20T10:33:01.000Z,32.875
2019-06-20T10:34:01.000Z,33.312
2019-06-20T10:35:01.000Z,33.25
2019-06-20T10:36:01.000Z,33
2019-06-20T10:37:01.000Z,32.687
2019-06-20T10:38:01.000Z,32.437
2019-06-20T10:39:01.000Z,32.062
2019-06-20T10:40:01.000Z,31.937
2019-06-20T10:41:01.000Z,31.75
2019-06-20T10:42:01.000Z,31.812
2019-06-20T10:43:02.000Z,31.312
2019-06-20T10:43:02.000Z,31.312
2019-06-20T10:44:01.000Z,30.312
2019-06-20T10:45:01.000Z,30.125
2019-06-20T10:46:01.000Z,30.437
2019-06-20T10:47:01.000Z,30.5
2019-06-20T10:48:01.000Z,30.312
2019-06-20T10:49:01.000Z,30.125
2019-06-20T10:50:01.000Z,30.187
2019-06-20T10:51:01.000Z,30.437
2019-06-20T10:52:01.000Z,30.687
2019-06-20T10:53:01.000Z,30.687
2019-06-20T10:54:01.000Z,31.125
2019-06-20T10:55:01.000Z,31.312
2019-06-20T10:56:01.000Z,31.375
2019-06-20T10:56:02.000Z,31.375
2019-06-20T10:57:01.000Z,31.375
2019-06-20T10:58:01.000Z,31.312
2019-06-20T10:59:01.000Z,31.375
2019-06-20T11:00:01.000Z,31.625
2019-06-20T11:01:01.000Z,31.5
2019-06-20T11:02:01.000Z,31.062
2019-06-20T11:03:01.000Z,31.062
2019-06-20T11:04:01.000Z,31.062
2019-06-20T11:05:01.000Z,31.25
2019-06-20T11:06:01.000Z,31.312
2019-06-20T11:07:01.000Z,31.562
2019-06-20T11:08:01.000Z,31.5
2019-06-20T11:08:01.000Z,31.5
2019-06-20T11:09:01.000Z,31.625
2019-06-20T11:10:02.000Z,31.75
2019-06-20T11:11:01.000Z,31.625
2019-06-20T11:12:01.000Z,31.187
2019-06-20T11:13:01.000Z,30.875
2019-06-20T11:14:01.000Z,30.625
2019-06-20T11:15:01.000Z,30.625
2019-06-20T11:16:01.000Z,30.75
2019-06-20T11:17:01.000Z,30.812
2019-06-20T11:17:01.000Z,30.75
2019-06-20T11:18:02.000Z,30.937
2019-06-20T11:19:02.000Z,31.25
2019-06-20T11:20:02.000Z,31.5
2019-06-20T11:21:01.000Z,31.5
2019-06-20T11:22:01.000Z,31.375
2019-06-20T11:23:01.000Z,31
2019-06-20T11:24:02.000Z,30.625
2019-06-20T11:25:02.000Z,30.625
2019-06-20T11:26:02.000Z,30.062
2019-06-20T11:27:02.000Z,30.062
2019-06-20T11:28:02.000Z,29.812
2019-06-20T11:29:02.000Z,29.687
2019-06-20T11:30:02.000Z,29.625
2019-06-20T11:31:01.000Z,29.562
2019-06-20T11:31:01.000Z,29.562
2019-06-20T11:32:01.000Z,29.437
2019-06-20T11:33:01.000Z,29.562
2019-06-20T11:34:01.000Z,29.625
2019-06-20T11:35:01.000Z,29.812
2019-06-20T11:36:02.000Z,30
2019-06-20T11:37:01.000Z,30.187
2019-06-20T11:38:01.000Z,30.187
2019-06-20T11:39:01.000Z,30.5
2019-06-20T11:40:01.000Z,30.625
2019-06-20T11:41:01.000Z,30.687
2019-06-20T11:42:01.000Z,30.562
2019-06-20T11:43:01.000Z,30.375
2019-06-20T11:44:01.000Z,30.187
2019-06-20T11:44:02.000Z,30.187
2019-06-20T11:45:01.000Z,30.312
2019-06-20T11:46:02.000Z,30.562
2019-06-20T11:47:02.000Z,30.75
2019-06-20T11:48:02.000Z,31.062
2019-06-20T11:49:02.000Z,31.375
2019-06-20T11:50:02.000Z,31.687
2019-06-20T11:51:01.000Z,31.937
2019-06-20T11:52:01.000Z,32.062
2019-06-20T11:53:01.000Z,32.125
2019-06-20T11:54:01.000Z,32.125
2019-06-20T11:55:01.000Z,32.312
2019-06-20T11:56:01.000Z,32.75
2019-06-20T11:57:01.000Z,33